Time;durP1;ratioP1;P1;durP2;ratioP2;P2;SDS_P1;SDS_P2;PMS_P1;PMS_P2;Temp;Humidity;BMP_temperature;BMP_pressure;BME280_temperature;BME280_humidity;BME280_pressure;Samples;Min_cycle;Max_cycle;Signal;HPM_P1;HPM_P2
2021/12/05 00:18:24;;;;;;;4.57;2.33;;;6.80;99.90;;;;;;4979473;28;20452;-62
2021/12/05 00:23:28;;;;;;;4.43;2.17;;;6.90;99.90;;;;;;4977966;28;20456;-62
2021/12/05 00:25:56;;;;;;;5.77;2.00;;;6.90;99.90;;;;;;4973153;28;20963;-61
2021/12/05 00:28:45;;;;;;;5.40;1.97;;;6.80;99.90;;;;;;4978933;28;20506;-62
2021/12/05 00:31:25;;;;;;;7.37;2.20;;;6.80;99.90;;;;;;4975250;28;20507;-62
2021/12/05 00:34:09;;;;;;;5.23;2.37;;;6.80;99.90;;;;;;4976846;28;20429;-62
2021/12/05 00:39:30;;;;;;;5.30;1.97;;;6.80;99.90;;;;;;4978305;28;20460;-62
2021/12/05 01:01:06;;;;;;;9.03;3.50;;;6.70;99.90;;;;;;4974577;28;20449;-61
2021/12/05 01:09:17;;;;;;;6.43;2.50;;;6.70;99.90;;;;;;4976673;28;20462;-62
2021/12/05 01:16:16;;;;;;;9.13;2.70;;;6.60;99.90;;;;;;4978960;28;20430;-63
2021/12/05 01:18:42;;;;;;;5.73;2.50;;;6.60;99.90;;;;;;4979329;28;20528;-62
2021/12/05 01:21:13;;;;;;;4.77;2.20;;;6.60;99.90;;;;;;4977580;28;20847;-62
2021/12/05 01:26:31;;;;;;;5.77;2.23;;;6.50;99.90;;;;;;4976868;28;22222;-62
2021/12/05 01:31:56;;;;;;;3.93;1.80;;;6.50;99.90;;;;;;4973924;28;20428;-63
2021/12/05 01:34:37;;;;;;;5.00;1.70;;;6.50;99.90;;;;;;4975268;28;20442;-62
2021/12/05 01:37:17;;;;;;;3.77;1.80;;;6.50;99.90;;;;;;4978518;28;20433;-62
2021/12/05 01:53:33;;;;;;;5.37;2.17;;;6.20;99.90;;;;;;4981884;28;20957;-61
2021/12/05 01:59:07;;;;;;;6.03;2.97;;;6.20;99.90;;;;;;4978272;28;20544;-61
2021/12/05 02:02:28;;;;;;;6.00;2.30;;;6.20;99.90;;;;;;4979509;28;20445;-62
2021/12/05 02:39:16;;;;;;;3.07;1.90;;;6.30;99.90;;;;;;4978907;28;20514;-61
2021/12/05 02:41:45;;;;;;;2.43;1.63;;;6.30;99.90;;;;;;4975580;28;20425;-61
2021/12/05 02:44:22;;;;;;;5.37;2.20;;;6.40;99.90;;;;;;4978965;28;20437;-62
2021/12/05 02:47:01;;;;;;;7.00;1.80;;;6.40;99.90;;;;;;4979869;28;20452;-62
2021/12/05 02:49:30;;;;;;;3.57;2.20;;;6.30;99.90;;;;;;4978014;28;20559;-62
2021/12/05 02:52:02;;;;;;;4.53;1.60;;;6.30;99.90;;;;;;4975724;28;20465;-62
2021/12/05 02:54:33;;;;;;;3.57;1.63;;;6.30;99.90;;;;;;4978588;28;20438;-61
2021/12/05 02:56:59;;;;;;;5.47;2.13;;;6.20;99.90;;;;;;4975469;28;20886;-61
2021/12/05 02:59:42;;;;;;;4.27;2.00;;;6.30;99.90;;;;;;4979056;28;21051;-62
2021/12/05 03:02:13;;;;;;;3.33;2.10;;;6.30;99.90;;;;;;4976915;28;20466;-62
2021/12/05 03:04:43;;;;;;;4.40;1.80;;;6.30;99.90;;;;;;4980832;28;20433;-62
2021/12/05 03:07:10;;;;;;;3.00;1.87;;;6.20;99.90;;;;;;4978944;28;20491;-63
2021/12/05 03:09:38;;;;;;;3.60;2.13;;;6.20;99.90;;;;;;4978813;28;20481;-62
2021/12/05 03:12:06;;;;;;;3.87;1.73;;;6.20;99.90;;;;;;4977659;28;20818;-62
2021/12/05 03:14:32;;;;;;;6.53;1.83;;;6.20;99.90;;;;;;4977081;28;20787;-62
2021/12/05 03:16:58;;;;;;;2.47;2.00;;;6.30;99.90;;;;;;4977948;28;20511;-62
2021/12/05 03:19:24;;;;;;;8.43;2.23;;;6.30;99.90;;;;;;4975977;28;20459;-63
2021/12/05 03:21:51;;;;;;;4.97;1.90;;;6.30;99.90;;;;;;4976571;28;20190;-63
2021/12/05 03:24:19;;;;;;;3.53;1.63;;;6.30;99.90;;;;;;4976892;28;20524;-61
2021/12/05 03:26:48;;;;;;;3.93;1.40;;;6.20;99.90;;;;;;4978369;28;20445;-62
2021/12/05 03:29:16;;;;;;;5.80;1.90;;;6.20;99.90;;;;;;4978603;28;20479;-61
2021/12/05 03:31:42;;;;;;;4.83;1.97;;;6.30;99.90;;;;;;4977755;28;20425;-62
2021/12/05 03:34:10;;;;;;;4.43;2.43;;;6.20;99.90;;;;;;4979503;28;20435;-61
2021/12/05 03:36:38;;;;;;;6.53;3.83;;;6.20;99.90;;;;;;4974939;28;20440;-61
2021/12/05 03:39:07;;;;;;;6.03;1.77;;;6.10;99.90;;;;;;4961361;28;20995;-62
2021/12/05 03:41:33;;;;;;;6.93;2.20;;;6.10;99.90;;;;;;4978393;28;20432;-62
2021/12/05 03:43:59;;;;;;;4.37;2.00;;;6.10;99.90;;;;;;4978127;28;20445;-61
2021/12/05 03:46:28;;;;;;;4.80;1.80;;;6.00;99.90;;;;;;4978485;28;20441;-62
2021/12/05 03:48:59;;;;;;;3.87;2.40;;;6.00;99.90;;;;;;4977031;28;20482;-61
2021/12/05 03:51:28;;;;;;;2.37;1.70;;;6.00;99.90;;;;;;4976783;28;20459;-62
2021/12/05 03:53:54;;;;;;;5.30;1.80;;;6.10;99.90;;;;;;4977820;28;20460;-62
2021/12/05 03:56:21;;;;;;;4.03;1.80;;;6.00;99.90;;;;;;4978702;28;20471;-62
2021/12/05 03:58:48;;;;;;;6.77;2.57;;;5.90;99.90;;;;;;4977481;28;20274;-62
2021/12/05 04:01:15;;;;;;;3.93;2.30;;;5.90;99.90;;;;;;4977042;28;20445;-61
2021/12/05 04:03:43;;;;;;;3.87;1.93;;;5.90;99.90;;;;;;4977909;28;21645;-62
2021/12/05 04:06:13;;;;;;;4.57;1.87;;;5.90;99.90;;;;;;4979872;28;20465;-62
2021/12/05 04:08:40;;;;;;;6.00;2.20;;;5.90;99.90;;;;;;4975576;28;20483;-62
2021/12/05 04:11:14;;;;;;;5.13;2.10;;;5.90;99.90;;;;;;4977876;28;20539;-62
2021/12/05 04:13:41;;;;;;;4.50;1.80;;;5.80;99.90;;;;;;4975175;28;20944;-62
2021/12/05 04:16:07;;;;;;;4.47;1.90;;;5.80;99.90;;;;;;4977871;28;20452;-61
2021/12/05 04:18:33;;;;;;;5.13;2.00;;;5.80;99.90;;;;;;4976193;28;20461;-62
2021/12/05 04:21:00;;;;;;;2.73;1.80;;;5.90;99.90;;;;;;4974432;28;20430;-62
2021/12/05 04:23:26;;;;;;;6.13;1.97;;;5.80;99.90;;;;;;4975070;28;20453;-62
2021/12/05 04:25:53;;;;;;;9.27;1.60;;;5.70;99.90;;;;;;4973498;28;20441;-63
2021/12/05 04:28:20;;;;;;;4.63;1.73;;;5.80;99.90;;;;;;4976604;28;20499;-62
2021/12/05 04:30:46;;;;;;;2.67;1.70;;;5.70;99.90;;;;;;4977160;28;20438;-59
2021/12/05 04:33:12;;;;;;;2.70;1.80;;;5.70;99.90;;;;;;4974990;28;20781;-61
2021/12/05 04:35:38;;;;;;;6.40;2.43;;;5.70;99.90;;;;;;4977645;28;20445;-61
2021/12/05 04:38:04;;;;;;;4.47;2.03;;;5.70;99.90;;;;;;4976523;28;20209;-61
2021/12/05 04:40:32;;;;;;;4.80;1.60;;;5.80;99.90;;;;;;4974955;28;20529;-62
2021/12/05 04:42:59;;;;;;;5.13;1.67;;;5.80;99.90;;;;;;4977172;28;20441;-62
2021/12/05 04:45:28;;;;;;;3.47;2.13;;;5.60;99.90;;;;;;4975534;28;20565;-62
2021/12/05 04:47:55;;;;;;;3.17;1.97;;;5.60;99.90;;;;;;4976325;28;20841;-63
2021/12/05 04:50:22;;;;;;;1.83;1.53;;;5.60;99.90;;;;;;4976218;28;20488;-63
2021/12/05 04:52:48;;;;;;;2.90;1.70;;;5.50;99.90;;;;;;4976282;28;20939;-62
2021/12/05 04:55:14;;;;;;;3.43;1.80;;;5.60;99.90;;;;;;4973121;28;20444;-62
2021/12/05 04:57:41;;;;;;;3.77;1.53;;;5.50;99.90;;;;;;4975537;28;20572;-62
2021/12/05 05:00:13;;;;;;;2.77;1.80;;;5.60;99.90;;;;;;4977688;28;20442;-62
2021/12/05 05:02:39;;;;;;;3.47;1.70;;;5.70;99.90;;;;;;4974877;28;20460;-63
2021/12/05 05:05:06;;;;;;;3.70;1.60;;;5.70;99.90;;;;;;4977773;28;20807;-62
2021/12/05 05:07:32;;;;;;;3.40;1.90;;;5.80;99.90;;;;;;4975924;28;20558;-61
2021/12/05 05:10:05;;;;;;;2.60;1.53;;;5.80;99.90;;;;;;4976791;28;20489;-61
2021/12/05 05:12:31;;;;;;;2.60;1.73;;;5.80;99.90;;;;;;4976040;28;20524;-62
2021/12/05 05:14:56;;;;;;;3.70;1.70;;;5.80;99.90;;;;;;4974669;28;20579;-62
2021/12/05 05:17:23;;;;;;;4.23;2.10;;;5.70;99.90;;;;;;4978274;28;20262;-62
2021/12/05 05:19:57;;;;;;;2.00;1.63;;;5.80;99.90;;;;;;4976796;28;20441;-62
2021/12/05 05:22:36;;;;;;;2.37;1.50;;;5.80;99.90;;;;;;4983376;28;21015;-61
2021/12/05 05:39:19;;;;;;;4.93;1.40;;;5.70;99.90;;;;;;4978357;28;20477;-62
2021/12/05 05:47:02;;;;;;;3.67;1.53;;;5.60;99.90;;;;;;4980601;28;20443;-62
2021/12/05 05:51:59;;;;;;;4.07;1.77;;;5.50;99.90;;;;;;4978856;28;20445;-62
2021/12/05 05:54:25;;;;;;;3.10;1.50;;;5.50;99.90;;;;;;4979509;28;20909;-62
2021/12/05 05:56:57;;;;;;;3.73;1.90;;;5.40;99.90;;;;;;4980458;28;20221;-62
2021/12/05 05:59:28;;;;;;;3.97;1.80;;;5.40;99.90;;;;;;4977900;28;20216;-62
2021/12/05 06:04:20;;;;;;;8.50;2.30;;;5.50;99.90;;;;;;4977772;28;20448;-61
2021/12/05 06:06:46;;;;;;;4.10;1.57;;;5.50;99.90;;;;;;4978350;28;20195;-61
2021/12/05 06:09:12;;;;;;;2.90;1.80;;;5.60;99.90;;;;;;4981209;28;20475;-61
2021/12/05 06:11:37;;;;;;;2.33;1.57;;;5.60;99.90;;;;;;4976088;28;20441;-61
2021/12/05 06:14:04;;;;;;;5.03;1.90;;;5.70;99.90;;;;;;4979075;28;20196;-62
2021/12/05 06:16:30;;;;;;;5.37;1.90;;;5.60;99.90;;;;;;4978947;28;20221;-61
2021/12/05 06:18:56;;;;;;;2.70;1.70;;;5.70;99.90;;;;;;4979032;28;20491;-62
2021/12/05 06:21:22;;;;;;;4.13;1.90;;;5.60;99.90;;;;;;4976152;28;20444;-62
2021/12/05 06:23:48;;;;;;;3.53;1.60;;;5.70;99.90;;;;;;4980127;28;20827;-62
2021/12/05 06:26:21;;;;;;;5.97;2.10;;;5.70;99.90;;;;;;4977601;28;20437;-62
2021/12/05 06:28:57;;;;;;;4.20;1.63;;;5.70;99.90;;;;;;4979395;28;20219;-62
2021/12/05 06:39:39;;;;;;;3.87;2.07;;;5.80;99.90;;;;;;4978226;28;20832;-62
2021/12/05 06:42:19;;;;;;;5.03;1.63;;;5.80;99.90;;;;;;4978035;28;20460;-63
2021/12/05 06:47:30;;;;;;;5.60;1.90;;;5.80;99.90;;;;;;4978121;28;20834;-63
2021/12/05 06:49:56;;;;;;;4.70;2.07;;;5.80;99.90;;;;;;4977403;28;20473;-63
2021/12/05 06:52:23;;;;;;;3.67;1.50;;;5.80;99.90;;;;;;4978511;28;20528;-63
2021/12/05 06:54:50;;;;;;;2.53;1.50;;;5.80;99.90;;;;;;4980702;28;20438;-62
2021/12/05 06:57:16;;;;;;;2.00;1.40;;;5.80;99.90;;;;;;4979952;28;20441;-63
2021/12/05 06:59:45;;;;;;;6.03;1.50;;;5.80;99.90;;;;;;4978230;28;20461;-62
2021/12/05 07:02:13;;;;;;;7.20;1.70;;;5.70;99.90;;;;;;4980016;28;21572;-63
2021/12/05 07:07:19;;;;;;;4.80;1.90;;;5.70;99.90;;;;;;4979842;28;20567;-63
2021/12/05 07:09:46;;;;;;;2.10;1.40;;;5.60;99.90;;;;;;4979255;28;20572;-63
2021/12/05 07:14:55;;;;;;;6.20;1.83;;;5.80;99.90;;;;;;4979902;28;20459;-62
2021/12/05 07:20:20;;;;;;;3.53;2.23;;;5.70;99.90;;;;;;4978515;28;20464;-63
2021/12/05 07:23:22;;;;;;;5.60;2.03;;;5.70;99.90;;;;;;4975545;28;20934;-62
2021/12/05 07:25:46;;;;;;;5.13;3.40;;;5.50;99.90;;;;;;4975415;28;20859;-62
2021/12/05 07:42:04;;;;;;;3.20;1.60;;;6.00;99.90;;;;;;4976903;28;20533;-63
2021/12/05 07:44:30;;;;;;;2.60;1.40;;;5.90;99.90;;;;;;4976010;28;20532;-63
2021/12/05 07:46:56;;;;;;;2.00;1.40;;;6.00;99.90;;;;;;4976674;28;20440;-62
2021/12/05 07:49:22;;;;;;;2.83;1.43;;;6.10;99.90;;;;;;4975244;28;20480;-63
2021/12/05 07:51:49;;;;;;;6.97;1.90;;;6.10;99.90;;;;;;4976997;28;20459;-63
2021/12/05 07:54:40;;;;;;;3.83;1.80;;;6.20;99.90;;;;;;4976107;28;20185;-63
2021/12/05 07:57:16;;;;;;;6.33;2.40;;;6.30;99.90;;;;;;4976266;28;20430;-63
2021/12/05 08:00:10;;;;;;;2.03;1.63;;;6.20;99.90;;;;;;4977752;28;20464;-63
2021/12/05 08:16:28;;;;;;;3.83;1.70;;;6.40;99.90;;;;;;5038532;28;20453;-62
2021/12/05 08:18:54;;;;;;;4.07;1.80;;;6.30;99.90;;;;;;5036467;28;20466;-62
2021/12/05 08:21:20;;;;;;;4.37;1.70;;;6.40;99.90;;;;;;5033372;28;20470;-61
2021/12/05 08:23:48;;;;;;;3.10;1.50;;;6.50;99.90;;;;;;5037775;28;20238;-62
2021/12/05 08:26:19;;;;;;;5.63;2.20;;;6.50;99.90;;;;;;5033876;28;20176;-62
2021/12/05 08:42:02;;;;;;;3.40;1.50;;;6.70;99.90;;;;;;5037743;28;20517;-63
2021/12/05 10:11:15;;;;;;;2.33;1.77;;;6.10;99.90;;;;;;5021680;28;20554;-63
2021/12/05 10:16:44;;;;;;;2.37;1.80;;;6.10;99.90;;;;;;5020493;28;20443;-63
2021/12/05 10:19:55;;;;;;;3.57;1.87;;;6.40;99.90;;;;;;5020410;28;20597;-63
2021/12/05 10:36:10;;;;;;;6.63;1.67;;;6.60;99.90;;;;;;5019017;28;20832;-63
2021/12/05 10:38:57;;;;;;;3.37;2.30;;;6.50;99.90;;;;;;5022512;28;20461;-62
2021/12/05 10:43:57;;;;;;;4.77;1.70;;;6.50;99.90;;;;;;5018596;28;20570;-63
2021/12/05 10:46:26;;;;;;;2.87;1.80;;;6.70;99.90;;;;;;5019640;28;20439;-63
2021/12/05 10:49:02;;;;;;;2.90;1.80;;;6.80;99.90;;;;;;5015603;28;20458;-62
2021/12/05 10:51:40;;;;;;;2.33;1.60;;;6.90;99.90;;;;;;5020719;28;20430;-62
2021/12/05 10:54:10;;;;;;;3.20;1.90;;;6.90;99.90;;;;;;5021455;28;20579;-62
2021/12/05 10:56:38;;;;;;;3.07;1.93;;;7.00;99.90;;;;;;5023725;28;20438;-62
2021/12/05 10:59:17;;;;;;;2.50;2.13;;;7.10;99.90;;;;;;5018950;28;20451;-63
2021/12/05 11:01:55;;;;;;;5.50;2.30;;;6.90;99.90;;;;;;5013938;28;20450;-62
2021/12/05 11:04:25;;;;;;;3.40;2.00;;;6.90;99.90;;;;;;5018748;28;20601;-63
2021/12/05 11:07:01;;;;;;;2.00;1.70;;;7.00;99.90;;;;;;5017523;28;20445;-61
2021/12/05 11:09:33;;;;;;;6.27;2.63;;;7.00;99.90;;;;;;5019979;28;20458;-62
2021/12/05 11:12:28;;;;;;;5.40;2.10;;;7.00;99.90;;;;;;5017890;28;20435;-62
2021/12/05 11:14:55;;;;;;;3.90;2.30;;;6.90;99.90;;;;;;5020143;28;20449;-66
2021/12/05 11:17:23;;;;;;;2.90;1.70;;;6.80;99.90;;;;;;5020898;28;20443;-63
2021/12/05 11:19:58;;;;;;;6.03;2.10;;;6.90;99.90;;;;;;5017367;28;20447;-63
2021/12/05 11:22:33;;;;;;;7.43;2.40;;;6.90;99.90;;;;;;5020586;28;20435;-61
2021/12/05 11:25:05;;;;;;;4.90;2.27;;;6.90;99.90;;;;;;5020505;28;20545;-61
2021/12/05 11:27:33;;;;;;;2.60;1.97;;;6.90;99.90;;;;;;5020125;28;20522;-61
2021/12/05 11:30:19;;;;;;;3.33;1.73;;;6.80;99.90;;;;;;5017614;28;20469;-57
2021/12/05 11:32:51;;;;;;;3.50;1.80;;;6.80;99.90;;;;;;5018369;28;20434;-60
2021/12/05 11:35:37;;;;;;;5.97;2.50;;;6.80;99.90;;;;;;5017512;28;20592;-60
2021/12/05 11:38:19;;;;;;;5.13;2.13;;;6.90;99.90;;;;;;5019984;28;20470;-60
2021/12/05 11:40:52;;;;;;;6.00;1.80;;;6.90;99.90;;;;;;5014147;28;20581;-61
2021/12/05 11:43:40;;;;;;;1.50;1.33;;;6.80;99.90;;;;;;5021767;28;20435;-59
2021/12/05 11:46:12;;;;;;;1.87;1.40;;;6.80;99.90;;;;;;5008728;28;20457;-61
2021/12/05 11:48:47;;;;;;;1.70;1.43;;;6.90;99.90;;;;;;5017220;28;20647;-61
2021/12/05 11:51:18;;;;;;;4.83;1.77;;;6.90;99.90;;;;;;5017496;28;20950;-61
2021/12/05 11:53:48;;;;;;;4.83;1.90;;;6.80;99.90;;;;;;5017957;28;20472;-60
2021/12/05 11:56:39;;;;;;;5.53;1.57;;;6.80;99.90;;;;;;5016949;28;20880;-60
2021/12/05 11:59:28;;;;;;;3.60;1.50;;;6.80;99.90;;;;;;5010081;28;20514;-60
2021/12/05 12:02:02;;;;;;;2.60;1.73;;;6.80;99.90;;;;;;5018088;28;20436;-60
2021/12/05 12:04:45;;;;;;;4.70;1.57;;;6.70;99.90;;;;;;5016951;28;20520;-59
2021/12/05 12:07:33;;;;;;;3.90;1.70;;;6.60;99.90;;;;;;5017886;28;20454;-60
2021/12/05 12:10:04;;;;;;;6.13;1.60;;;6.50;99.90;;;;;;5016897;28;20700;-60
2021/12/05 12:12:30;;;;;;;3.10;1.63;;;6.40;99.90;;;;;;5011742;28;20446;-59
2021/12/05 12:14:56;;;;;;;3.33;1.47;;;6.50;99.90;;;;;;5018244;28;20431;-59
2021/12/05 12:17:22;;;;;;;2.40;1.60;;;6.50;99.90;;;;;;5018456;28;20223;-59
2021/12/05 12:19:51;;;;;;;2.87;1.67;;;6.60;99.90;;;;;;5014991;28;20444;-60
2021/12/05 12:22:20;;;;;;;5.63;1.87;;;6.70;99.90;;;;;;5019841;28;20441;-59
2021/12/05 12:25:11;;;;;;;3.63;1.47;;;7.10;99.90;;;;;;5017179;28;20808;-59
2021/12/05 12:27:37;;;;;;;2.50;1.60;;;7.30;99.90;;;;;;5019475;28;20815;-60
2021/12/05 12:30:05;;;;;;;4.37;1.87;;;7.70;99.90;;;;;;5019776;28;20478;-60
2021/12/05 12:32:39;;;;;;;3.70;1.60;;;9.20;99.90;;;;;;5018218;28;20555;-60
2021/12/05 12:35:19;;;;;;;4.27;1.87;;;9.60;99.90;;;;;;5020033;28;20574;-60
2021/12/05 12:38:02;;;;;;;2.80;1.70;;;9.70;99.90;;;;;;5015276;28;20588;-60
2021/12/05 12:40:39;;;;;;;3.20;2.00;;;9.60;99.90;;;;;;5018050;28;20466;-60
2021/12/05 12:43:07;;;;;;;2.63;1.70;;;9.30;99.90;;;;;;5020066;28;21070;-61
2021/12/05 12:45:41;;;;;;;4.10;2.40;;;9.00;99.90;;;;;;5017411;28;20904;-59
2021/12/05 12:48:13;;;;;;;6.23;2.20;;;9.00;99.90;;;;;;5018197;28;20461;-60
2021/12/05 12:50:52;;;;;;;2.90;1.80;;;9.00;99.90;;;;;;5019555;28;20431;-60
2021/12/05 12:53:29;;;;;;;6.53;2.30;;;9.10;99.90;;;;;;5020161;28;20492;-61
2021/12/05 12:56:05;;;;;;;4.73;2.10;;;10.30;99.90;;;;;;5015228;28;20542;-59
2021/12/05 12:58:48;;;;;;;2.00;1.60;;;11.30;99.90;;;;;;5016630;28;20454;-60
2021/12/05 13:01:40;;;;;;;2.80;2.20;;;12.10;99.90;;;;;;5014428;28;20441;-60
2021/12/05 13:10:00;;;;;;;4.53;2.97;;;13.50;99.90;;;;;;5013246;28;20453;-59
2021/12/05 13:12:48;;;;;;;4.77;2.63;;;13.40;99.90;;;;;;5013202;28;20528;-60
2021/12/05 13:15:33;;;;;;;3.60;2.60;;;12.40;99.90;;;;;;5017246;28;20558;-59
2021/12/05 13:18:04;;;;;;;3.80;2.60;;;11.90;99.90;;;;;;5013471;28;20466;-59
2021/12/05 13:20:52;;;;;;;4.60;2.40;;;11.10;99.90;;;;;;5012582;28;20910;-59
2021/12/05 13:23:46;;;;;;;6.20;2.97;;;10.60;99.90;;;;;;5020231;28;20467;-59
2021/12/05 13:26:26;;;;;;;3.40;2.03;;;10.10;99.90;;;;;;5018887;28;21053;-61
2021/12/05 13:28:58;;;;;;;3.23;2.23;;;9.70;99.90;;;;;;5020527;28;20454;-59
2021/12/05 13:31:32;;;;;;;3.97;2.60;;;9.50;99.90;;;;;;5020118;28;20446;-60
2021/12/05 13:34:16;;;;;;;3.10;2.20;;;9.50;99.90;;;;;;5017077;28;20470;-59
2021/12/05 13:37:03;;;;;;;1.97;1.70;;;9.30;99.90;;;;;;5021579;28;21003;-60
2021/12/05 13:39:44;;;;;;;2.57;1.80;;;9.20;99.90;;;;;;5001142;28;20476;-60
2021/12/05 13:42:23;;;;;;;5.40;2.70;;;9.10;99.90;;;;;;5021629;28;20443;-60
2021/12/05 13:45:07;;;;;;;2.77;1.93;;;9.00;99.90;;;;;;5018414;28;20854;-61
2021/12/05 13:47:39;;;;;;;3.70;2.40;;;8.90;99.90;;;;;;5019121;28;20754;-60
2021/12/05 13:50:17;;;;;;;2.43;1.80;;;9.20;99.90;;;;;;5013937;28;20886;-60
2021/12/05 13:52:46;;;;;;;2.60;1.97;;;9.20;99.90;;;;;;5023967;28;20447;-61
2021/12/05 13:55:39;;;;;;;1.90;1.57;;;9.00;99.90;;;;;;5021697;28;20462;-61
2021/12/05 13:58:28;;;;;;;2.33;1.63;;;9.10;99.90;;;;;;5020554;28;20916;-61
2021/12/05 14:01:24;;;;;;;5.40;1.67;;;9.30;99.90;;;;;;5022670;28;20435;-60
2021/12/05 14:04:08;;;;;;;2.20;1.87;;;9.40;99.90;;;;;;5021022;28;20554;-60
2021/12/05 14:06:57;;;;;;;4.73;2.80;;;9.10;99.90;;;;;;5019958;28;20497;-60
2021/12/05 14:09:26;;;;;;;2.37;1.70;;;9.00;99.90;;;;;;5022727;28;20455;-60
2021/12/05 14:11:56;;;;;;;4.03;2.03;;;9.00;99.90;;;;;;5022585;28;20889;-61
2021/12/05 14:14:29;;;;;;;2.90;1.77;;;8.80;99.90;;;;;;5017175;28;21185;-60
2021/12/05 14:16:57;;;;;;;3.10;2.20;;;8.70;99.90;;;;;;5020403;28;20798;-61
2021/12/05 14:19:27;;;;;;;4.63;2.03;;;8.60;99.90;;;;;;5018915;28;20466;-60
2021/12/05 14:21:56;;;;;;;2.27;2.00;;;8.80;99.90;;;;;;5020010;28;20427;-61
2021/12/05 14:24:25;;;;;;;7.20;2.00;;;8.50;99.90;;;;;;5020304;28;21102;-60
2021/12/05 14:26:54;;;;;;;2.83;2.07;;;8.70;99.90;;;;;;5016905;28;20435;-60
2021/12/05 14:29:25;;;;;;;5.10;1.90;;;8.60;99.90;;;;;;5019263;28;20556;-60
2021/12/05 14:32:06;;;;;;;3.33;2.17;;;8.60;99.90;;;;;;5011419;28;20460;-61
2021/12/05 14:34:32;;;;;;;3.67;2.00;;;8.70;99.90;;;;;;5019843;28;20447;-60
2021/12/05 14:37:02;;;;;;;3.33;1.93;;;8.50;99.90;;;;;;5022231;28;20427;-60
2021/12/05 14:39:34;;;;;;;5.23;2.00;;;8.60;99.90;;;;;;5019274;28;20219;-60
2021/12/05 14:42:06;;;;;;;5.73;3.10;;;8.40;99.90;;;;;;5021016;28;20542;-60
2021/12/05 14:44:32;;;;;;;3.97;2.43;;;8.40;99.90;;;;;;5021058;28;20478;-61
2021/12/05 14:47:08;;;;;;;3.90;1.97;;;8.40;99.90;;;;;;5034525;28;21011;-61
2021/12/05 14:49:43;;;;;;;3.20;2.00;;;8.70;99.90;;;;;;5018715;28;20791;-61
2021/12/05 14:52:17;;;;;;;4.03;1.93;;;8.50;99.90;;;;;;5017959;28;20915;-61
2021/12/05 14:54:43;;;;;;;3.80;2.43;;;8.20;99.90;;;;;;5019092;28;20458;-61
2021/12/05 14:57:16;;;;;;;4.63;4.17;;;8.10;99.90;;;;;;5018876;28;20528;-61
2021/12/05 14:59:45;;;;;;;2.27;1.73;;;8.00;99.90;;;;;;5017609;28;20458;-60
2021/12/05 15:02:12;;;;;;;2.27;2.00;;;7.80;99.90;;;;;;5015969;28;20446;-60
2021/12/05 15:04:44;;;;;;;4.37;2.23;;;7.80;99.90;;;;;;5013094;28;20471;-60
2021/12/05 15:07:10;;;;;;;4.03;2.30;;;7.90;99.90;;;;;;5019943;28;22367;-60
2021/12/05 15:09:40;;;;;;;3.43;2.70;;;7.70;99.90;;;;;;5018916;28;20451;-59
2021/12/05 15:12:12;;;;;;;4.90;2.43;;;7.70;99.90;;;;;;5020404;28;20530;-60
2021/12/05 15:14:40;;;;;;;5.33;2.63;;;7.70;99.90;;;;;;5017955;28;20446;-59
2021/12/05 15:17:21;;;;;;;4.83;2.37;;;7.60;99.90;;;;;;5019400;28;20509;-59
2021/12/05 15:19:51;;;;;;;4.13;2.80;;;7.70;99.90;;;;;;5018882;28;20443;-60
2021/12/05 15:22:18;;;;;;;5.53;2.83;;;7.70;99.90;;;;;;5006269;28;20450;-60
2021/12/05 15:24:55;;;;;;;6.43;2.60;;;8.00;99.90;;;;;;5005713;28;21935;-60
2021/12/05 15:27:24;;;;;;;4.30;2.57;;;8.10;99.90;;;;;;5013317;28;20443;-60
2021/12/05 15:29:57;;;;;;;7.30;2.73;;;8.10;99.90;;;;;;5011237;28;20432;-60
2021/12/05 15:32:25;;;;;;;8.83;3.47;;;8.20;99.90;;;;;;5014639;28;20490;-60
2021/12/05 15:34:57;;;;;;;5.50;3.70;;;8.10;99.90;;;;;;5015587;28;20435;-60
2021/12/05 15:37:24;;;;;;;5.17;2.80;;;8.20;99.90;;;;;;5018475;28;20900;-60
2021/12/05 15:39:52;;;;;;;3.90;3.00;;;8.00;99.90;;;;;;5008195;28;20438;-60
2021/12/05 15:42:33;;;;;;;4.77;3.63;;;7.90;99.90;;;;;;5014157;28;20469;-54
2021/12/05 15:45:03;;;;;;;7.57;3.60;;;8.00;99.90;;;;;;5004014;28;20475;-57
2021/12/05 15:47:31;;;;;;;4.90;3.67;;;7.90;99.90;;;;;;4999869;28;20435;-59
2021/12/05 15:50:02;;;;;;;6.00;4.17;;;8.20;99.90;;;;;;5011728;28;20443;-58
2021/12/05 15:52:32;;;;;;;11.97;3.63;;;8.30;99.90;;;;;;5010326;28;20469;-57
2021/12/05 15:54:58;;;;;;;4.80;3.60;;;8.20;99.90;;;;;;5009063;28;20463;-57
2021/12/05 15:57:34;;;;;;;10.70;4.80;;;8.10;99.90;;;;;;5012825;28;20486;-58
2021/12/05 16:00:07;;;;;;;7.20;3.87;;;8.20;99.90;;;;;;5019786;28;20529;-55
2021/12/05 16:02:32;;;;;;;8.53;3.87;;;8.40;99.90;;;;;;5013108;28;20952;-57
2021/12/05 16:04:58;;;;;;;6.37;3.93;;;8.40;99.90;;;;;;5018354;28;20520;-56
2021/12/05 16:07:29;;;;;;;6.40;4.00;;;8.30;99.90;;;;;;5013203;28;20570;-56
2021/12/05 16:10:09;;;;;;;5.90;5.00;;;8.30;99.90;;;;;;5009767;28;20288;-57
2021/12/05 16:12:40;;;;;;;8.20;4.50;;;8.20;99.90;;;;;;5013684;28;20435;-54
2021/12/05 16:15:07;;;;;;;6.20;4.77;;;8.30;99.90;;;;;;5014569;28;21258;-55
2021/12/05 16:17:33;;;;;;;7.93;4.87;;;8.30;99.90;;;;;;5014343;28;20462;-57
2021/12/05 16:20:16;;;;;;;7.30;5.20;;;8.40;99.90;;;;;;5012282;28;20459;-55
2021/12/05 16:22:59;;;;;;;5.43;4.60;;;8.60;99.90;;;;;;5015694;28;20450;-57
2021/12/05 16:25:26;;;;;;;5.20;3.93;;;8.70;99.90;;;;;;5020424;28;20496;-57
2021/12/05 16:28:01;;;;;;;5.57;3.93;;;8.70;99.90;;;;;;5016708;28;20506;-57
2021/12/05 16:30:32;;;;;;;6.03;4.47;;;8.60;99.90;;;;;;5016887;28;21234;-58
2021/12/05 16:33:03;;;;;;;7.53;4.30;;;8.60;99.90;;;;;;5017712;28;20452;-59
2021/12/05 16:35:34;;;;;;;5.70;4.50;;;8.50;99.90;;;;;;5016167;28;20486;-56
2021/12/05 16:38:02;;;;;;;10.50;4.73;;;8.40;99.90;;;;;;5014972;28;20508;-58
2021/12/05 16:40:53;;;;;;;6.03;4.13;;;8.40;99.90;;;;;;5013794;28;20557;-58
2021/12/05 16:43:19;;;;;;;6.40;4.77;;;8.40;99.90;;;;;;5015194;28;21419;-59
2021/12/05 16:45:45;;;;;;;11.20;5.37;;;8.30;99.90;;;;;;5017592;28;20486;-59
2021/12/05 16:48:15;;;;;;;11.73;7.70;;;8.40;99.90;;;;;;5015738;28;20473;-58
2021/12/05 16:50:41;;;;;;;8.67;6.33;;;8.60;99.90;;;;;;5017315;28;20188;-58
2021/12/05 16:53:07;;;;;;;12.63;5.63;;;8.60;99.90;;;;;;5018145;28;20447;-57
2021/12/05 16:55:34;;;;;;;9.20;6.40;;;8.60;99.90;;;;;;5014153;28;20235;-59
2021/12/05 16:58:16;;;;;;;13.03;8.53;;;8.70;99.90;;;;;;5018614;28;20491;-58
2021/12/05 17:00:51;;;;;;;16.73;8.10;;;8.60;99.90;;;;;;5019598;28;20431;-58
2021/12/05 17:03:23;;;;;;;10.23;6.33;;;8.50;99.90;;;;;;5010013;28;20447;-58
2021/12/05 17:05:50;;;;;;;9.00;5.70;;;8.50;99.90;;;;;;5015249;28;20804;-55
2021/12/05 17:08:19;;;;;;;8.90;5.60;;;8.50;99.90;;;;;;5013460;28;20458;-58
2021/12/05 17:10:54;;;;;;;9.07;6.00;;;8.20;99.90;;;;;;5011833;28;20442;-58
2021/12/05 17:13:40;;;;;;;6.40;5.50;;;8.00;99.90;;;;;;5017225;28;20442;-57
2021/12/05 17:16:23;;;;;;;8.53;7.23;;;7.90;99.90;;;;;;5017360;28;20471;-57
2021/12/05 17:19:01;;;;;;;10.20;6.33;;;7.80;99.90;;;;;;5019511;28;20452;-58
2021/12/05 17:21:33;;;;;;;20.93;13.00;;;7.70;99.90;;;;;;5019271;28;20470;-58
2021/12/05 17:24:10;;;;;;;18.00;13.07;;;7.50;99.90;;;;;;5018875;28;20470;-59
2021/12/05 17:26:39;;;;;;;14.07;10.20;;;7.40;99.90;;;;;;5017857;28;20621;-58
2021/12/05 17:29:17;;;;;;;10.20;7.97;;;7.30;99.90;;;;;;5008436;28;20463;-55
2021/12/05 17:31:46;;;;;;;18.77;9.20;;;7.50;99.90;;;;;;5018586;28;20447;-58
2021/12/05 17:34:18;;;;;;;18.20;10.60;;;7.60;99.90;;;;;;5014612;28;20957;-58
2021/12/05 17:36:50;;;;;;;14.33;7.70;;;7.70;99.90;;;;;;5011817;28;20976;-57
2021/12/05 17:39:19;;;;;;;9.27;6.80;;;7.90;99.90;;;;;;5016215;28;20463;-58
2021/12/05 17:41:48;;;;;;;12.43;6.83;;;8.00;99.90;;;;;;5016512;28;22390;-56
2021/12/05 17:44:17;;;;;;;23.47;11.80;;;8.00;99.90;;;;;;5006510;28;20463;-57
2021/12/05 17:46:46;;;;;;;17.03;11.20;;;8.10;99.90;;;;;;5020402;28;20518;-58
2021/12/05 17:49:14;;;;;;;19.60;10.90;;;7.70;99.90;;;;;;5016586;28;20939;-56
2021/12/05 17:51:41;;;;;;;15.87;8.67;;;7.60;99.90;;;;;;5016611;28;21049;-58
2021/12/05 17:54:24;;;;;;;11.57;8.33;;;7.60;99.90;;;;;;5014005;28;20448;-57
2021/12/05 17:56:52;;;;;;;13.10;7.00;;;7.70;99.90;;;;;;5016792;28;20963;-58
2021/12/05 18:04:30;;;;;;;9.90;6.73;;;7.60;99.90;;;;;;5015894;28;20486;-59
2021/12/05 18:06:58;;;;;;;10.03;6.17;;;7.50;99.90;;;;;;5018470;28;20435;-59
2021/12/05 18:09:23;;;;;;;11.33;5.93;;;7.50;99.90;;;;;;5015745;28;20466;-57
2021/12/05 18:11:50;;;;;;;7.50;6.17;;;7.30;99.90;;;;;;5013975;28;20435;-58
2021/12/05 18:14:16;;;;;;;8.43;5.57;;;7.10;99.90;;;;;;5015486;28;20570;-62
2021/12/05 18:16:42;;;;;;;7.80;5.83;;;7.40;99.90;;;;;;5015932;28;20470;-56
2021/12/05 18:19:11;;;;;;;10.70;7.70;;;7.60;99.90;;;;;;5018447;28;20454;-62
2021/12/05 18:21:39;;;;;;;9.87;8.20;;;7.70;99.90;;;;;;5015648;28;20185;-60
2021/12/05 18:24:08;;;;;;;7.80;4.90;;;7.40;99.90;;;;;;5011771;28;20470;-58
2021/12/05 18:26:35;;;;;;;6.47;4.30;;;7.00;99.90;;;;;;5018410;28;20435;-59
2021/12/05 18:29:01;;;;;;;6.70;5.03;;;6.70;99.90;;;;;;5017575;28;20961;-59
2021/12/05 18:31:28;;;;;;;8.83;5.87;;;6.60;99.90;;;;;;5008235;28;20443;-58